Time;durP1;ratioP1;P1;durP2;ratioP2;P2;SDS_P1;SDS_P2;PMS_P1;PMS_P2;Temp;Humidity;BMP_temperature;BMP_pressure;BME280_temperature;BME280_humidity;BME280_pressure;Samples;Min_cycle;Max_cycle;Signal;HPM_P1;HPM_P2
2022/11/17 00:00:17;;;;;;;22.95;18.88;;;9.30;99.90;;;;;;6124851;23;93263;-73
2022/11/17 00:02:45;;;;;;;22.38;18.63;;;9.40;99.90;;;;;;6098350;23;95691;-73
2022/11/17 00:05:13;;;;;;;20.80;17.85;;;9.40;99.90;;;;;;6124997;23;92304;-73
2022/11/17 00:07:42;;;;;;;24.15;19.45;;;9.30;99.90;;;;;;6125277;23;92400;-73
2022/11/17 00:10:09;;;;;;;20.65;15.77;;;9.40;99.90;;;;;;6098440;23;93285;-73
2022/11/17 00:15:21;;;;;;;21.95;17.30;;;9.40;99.90;;;;;;6124983;23;92398;-73
2022/11/17 00:17:48;;;;;;;20.77;17.33;;;9.30;99.90;;;;;;6098321;23;92514;-73
2022/11/17 00:23:00;;;;;;;18.75;15.55;;;9.30;99.90;;;;;;6125129;23;95378;-73
2022/11/17 00:25:27;;;;;;;16.65;14.60;;;9.30;99.90;;;;;;6123192;23;92452;-73
2022/11/17 00:27:53;;;;;;;19.88;17.95;;;9.40;99.90;;;;;;6098312;23;92452;-73
2022/11/17 00:35:54;;;;;;;15.13;13.65;;;9.30;99.90;;;;;;6125377;23;92889;-73
2022/11/17 00:38:21;;;;;;;18.80;15.85;;;9.30;99.90;;;;;;6098698;23;91797;-73
2022/11/17 00:40:48;;;;;;;17.38;14.82;;;9.30;99.90;;;;;;6124952;23;93369;-73
2022/11/17 00:43:15;;;;;;;16.90;14.90;;;9.30;99.90;;;;;;6124787;23;93132;-73
2022/11/17 00:45:42;;;;;;;16.70;14.80;;;9.30;99.90;;;;;;6123880;23;95327;-73
2022/11/17 00:48:09;;;;;;;16.98;15.10;;;9.30;99.90;;;;;;6098058;23;92508;-73
2022/11/17 00:50:36;;;;;;;16.13;14.48;;;9.30;99.90;;;;;;6098366;23;93400;-73
2022/11/17 00:53:03;;;;;;;18.92;15.68;;;9.30;99.90;;;;;;6124961;23;92932;-73
2022/11/17 00:55:29;;;;;;;15.82;13.52;;;9.30;99.90;;;;;;6097787;23;101607;-73
2022/11/17 00:57:56;;;;;;;13.52;11.85;;;9.30;99.90;;;;;;6125122;23;92335;-73
2022/11/17 01:00:23;;;;;;;16.15;13.95;;;9.30;99.90;;;;;;6124657;23;93043;-73
2022/11/17 01:02:50;;;;;;;13.68;11.02;;;9.30;99.90;;;;;;6098773;23;93034;-73
2022/11/17 01:05:17;;;;;;;17.25;15.45;;;9.20;99.90;;;;;;6098382;23;92621;-73
2022/11/17 01:07:45;;;;;;;15.55;13.82;;;9.30;99.90;;;;;;6125216;23;92357;-73
2022/11/17 01:10:12;;;;;;;18.33;15.50;;;9.30;99.90;;;;;;6123049;23;95776;-73
2022/11/17 01:12:39;;;;;;;16.73;14.73;;;9.30;99.90;;;;;;6097782;23;98003;-73
2022/11/17 01:15:07;;;;;;;20.58;15.05;;;9.30;99.90;;;;;;6073789;23;93008;-73
2022/11/17 01:17:34;;;;;;;17.70;15.50;;;9.40;99.90;;;;;;6097682;23;92528;-73
2022/11/17 01:20:01;;;;;;;17.40;15.68;;;9.30;99.90;;;;;;6124804;23;93106;-73
2022/11/17 01:22:28;;;;;;;17.02;13.82;;;9.30;99.90;;;;;;6124672;23;92991;-73
2022/11/17 01:24:55;;;;;;;18.05;14.32;;;9.40;99.90;;;;;;6125053;23;92550;-73
2022/11/17 01:27:22;;;;;;;15.80;14.10;;;9.30;99.90;;;;;;6097667;23;102274;-73
2022/11/17 01:29:49;;;;;;;18.20;16.30;;;9.40;99.90;;;;;;6124745;23;93080;-73
2022/11/17 01:32:16;;;;;;;18.50;16.58;;;9.40;99.90;;;;;;6124468;23;93093;-73
2022/11/17 01:34:42;;;;;;;18.70;16.23;;;9.40;99.90;;;;;;6123451;23;94946;-73
2022/11/17 01:37:18;;;;;;;18.60;16.83;;;9.30;99.90;;;;;;6097978;23;92411;-73
2022/11/17 01:39:46;;;;;;;16.60;14.80;;;9.30;99.90;;;;;;6098180;23;95872;-73
2022/11/17 01:42:23;;;;;;;17.85;16.00;;;9.30;99.90;;;;;;6098341;23;92999;-73
2022/11/17 01:44:58;;;;;;;20.10;15.52;;;9.30;99.90;;;;;;6124910;23;92285;-73
2022/11/17 01:47:50;;;;;;;17.48;15.25;;;9.30;99.90;;;;;;6098062;23;92350;-73
2022/11/17 01:50:37;;;;;;;16.38;14.68;;;9.30;99.90;;;;;;6073155;23;96048;-73
2022/11/17 01:53:09;;;;;;;16.48;14.48;;;9.30;99.90;;;;;;6098489;23;93009;-73
2022/11/17 01:55:52;;;;;;;17.20;14.93;;;9.30;99.90;;;;;;6073303;23;95491;-73
2022/11/17 01:58:24;;;;;;;17.23;15.23;;;9.30;99.90;;;;;;6098011;23;92788;-72
2022/11/17 02:00:53;;;;;;;16.95;14.35;;;9.20;99.90;;;;;;6123178;23;95473;-73
2022/11/17 02:03:20;;;;;;;15.25;13.65;;;9.20;99.90;;;;;;6096668;23;111412;-73
2022/11/17 02:06:05;;;;;;;17.58;14.32;;;9.20;99.90;;;;;;6098520;23;92611;-73
2022/11/17 02:08:36;;;;;;;12.02;10.75;;;9.20;99.90;;;;;;6073836;23;93114;-73
2022/11/17 02:11:07;;;;;;;16.23;14.48;;;9.20;99.90;;;;;;6098288;23;93795;-73
2022/11/17 02:13:35;;;;;;;14.18;12.68;;;9.10;99.90;;;;;;6097748;23;95654;-73
2022/11/17 02:16:02;;;;;;;19.42;15.38;;;9.10;99.90;;;;;;6097010;23;103188;-73
2022/11/17 02:18:29;;;;;;;14.65;12.77;;;9.10;99.90;;;;;;6124881;23;91683;-73
2022/11/17 02:21:34;;;;;;;17.20;15.32;;;9.20;99.90;;;;;;6098284;23;93074;-73
2022/11/17 02:24:22;;;;;;;17.30;14.65;;;9.20;99.90;;;;;;6124503;23;92384;-73
2022/11/17 02:27:04;;;;;;;17.35;15.20;;;9.10;99.90;;;;;;6096474;23;94865;-73
2022/11/17 02:29:47;;;;;;;17.35;15.55;;;9.10;99.90;;;;;;6097318;23;92473;-73
2022/11/17 02:32:26;;;;;;;17.13;15.43;;;9.20;99.90;;;;;;6098149;23;93246;-73
2022/11/17 02:35:05;;;;;;;17.67;15.80;;;9.10;99.90;;;;;;6124323;23;92967;-73
2022/11/17 02:38:10;;;;;;;16.58;14.80;;;9.10;99.90;;;;;;6097390;23;92346;-73
2022/11/17 02:40:42;;;;;;;15.40;13.77;;;9.10;99.90;;;;;;6124319;23;92854;-73
2022/11/17 02:46:10;;;;;;;16.75;15.15;;;9.10;99.90;;;;;;6098252;23;96163;-73
2022/11/17 02:48:44;;;;;;;19.75;15.43;;;9.10;99.90;;;;;;6124265;23;92369;-73
2022/11/17 02:51:15;;;;;;;18.23;14.52;;;9.00;99.90;;;;;;6098215;23;92451;-73
2022/11/17 02:53:42;;;;;;;18.65;16.73;;;9.10;99.90;;;;;;6071401;23;98023;-73
2022/11/17 02:56:09;;;;;;;18.55;16.63;;;9.10;99.90;;;;;;6097736;23;95298;-73
2022/11/17 02:58:36;;;;;;;23.30;19.98;;;9.00;99.90;;;;;;6124091;23;92465;-73
2022/11/17 03:01:12;;;;;;;20.30;17.80;;;9.00;99.90;;;;;;6124392;23;92395;-73
2022/11/17 03:04:23;;;;;;;23.63;20.98;;;9.00;99.90;;;;;;6073108;23;95626;-73
2022/11/17 03:07:12;;;;;;;25.52;22.75;;;8.90;99.90;;;;;;6124285;23;93000;-73
2022/11/17 03:10:06;;;;;;;25.83;20.75;;;8.80;99.90;;;;;;6097712;23;92292;-73
2022/11/17 03:12:52;;;;;;;27.52;21.98;;;8.70;99.90;;;;;;6124509;23;91621;-73
2022/11/17 03:15:35;;;;;;;26.38;22.85;;;8.60;99.90;;;;;;6072932;23;96049;-73
2022/11/17 03:18:11;;;;;;;28.35;22.77;;;8.60;99.90;;;;;;6072998;23;95654;-74
2022/11/17 03:21:00;;;;;;;32.10;26.35;;;8.60;99.90;;;;;;6122532;23;94767;-74
2022/11/17 03:23:34;;;;;;;30.38;25.83;;;8.50;99.90;;;;;;6097672;23;93174;-74
2022/11/17 03:26:04;;;;;;;33.92;26.08;;;8.50;99.90;;;;;;6097715;23;93102;-75
2022/11/17 03:28:32;;;;;;;29.90;25.70;;;8.40;99.90;;;;;;6123300;23;93368;-75
2022/11/17 03:31:01;;;;;;;31.55;25.58;;;8.40;99.90;;;;;;6072753;23;92335;-75
2022/11/17 03:33:29;;;;;;;30.58;25.60;;;8.40;99.90;;;;;;6097808;23;92368;-75
2022/11/17 03:36:06;;;;;;;25.80;20.83;;;8.40;99.90;;;;;;6123771;23;93006;-75
2022/11/17 03:38:43;;;;;;;33.78;26.02;;;8.30;99.90;;;;;;6097872;23;93214;-75
2022/11/17 03:41:13;;;;;;;32.05;24.63;;;8.30;99.90;;;;;;6124202;23;92313;-75
2022/11/17 03:43:42;;;;;;;35.00;25.65;;;8.30;99.90;;;;;;6123758;23;92368;-75
2022/11/17 03:46:14;;;;;;;32.75;24.25;;;8.30;99.90;;;;;;6094993;23;113844;-76
2022/11/17 03:48:54;;;;;;;36.10;27.65;;;8.20;99.90;;;;;;6123557;23;95464;-77
2022/11/17 03:51:27;;;;;;;47.90;27.52;;;8.20;99.90;;;;;;6124011;23;92265;-76
2022/11/17 03:53:54;;;;;;;44.53;31.47;;;8.10;99.90;;;;;;6124446;23;92359;-76
2022/11/17 03:56:36;;;;;;;45.75;29.25;;;8.10;99.90;;;;;;6124921;23;99301;-76
2022/11/17 03:59:05;;;;;;;38.15;26.02;;;8.00;99.90;;;;;;6098317;23;95796;-77
2022/11/17 04:01:33;;;;;;;44.00;29.63;;;8.00;99.90;;;;;;6098817;23;101479;-78
2022/11/17 04:04:00;;;;;;;47.67;27.83;;;8.00;99.90;;;;;;6099660;23;91659;-77
2022/11/17 04:06:27;;;;;;;49.30;27.90;;;7.90;99.90;;;;;;6125163;23;93064;-78
2022/11/17 04:08:54;;;;;;;38.72;24.48;;;7.90;99.90;;;;;;6124993;23;93133;-79
2022/11/17 04:16:53;;;;;;;43.30;28.90;;;7.70;99.90;;;;;;6098276;23;95742;-79
2022/11/17 04:19:20;;;;;;;43.97;28.10;;;7.70;99.90;;;;;;6098388;23;95353;-79
2022/11/17 04:21:47;;;;;;;29.92;24.23;;;7.70;99.90;;;;;;6098761;23;92447;-78
2022/11/17 04:24:14;;;;;;;38.10;30.90;;;7.70;99.90;;;;;;6099036;23;92430;-78
2022/11/17 04:29:27;;;;;;;50.08;26.73;;;7.70;99.90;;;;;;6125506;23;92321;-78
2022/11/17 04:31:54;;;;;;;39.38;22.48;;;7.70;99.90;;;;;;6124955;23;92288;-78
2022/11/17 04:34:21;;;;;;;37.10;27.98;;;7.60;99.90;;;;;;6125237;23;92424;-78
2022/11/17 04:36:47;;;;;;;36.13;24.20;;;7.60;99.90;;;;;;6123138;23;95652;-77
2022/11/17 04:39:15;;;;;;;37.15;24.85;;;7.60;99.90;;;;;;6073743;23;96448;-77
2022/11/17 04:42:01;;;;;;;34.42;22.52;;;7.60;99.90;;;;;;6098358;23;92384;-78
2022/11/17 04:44:30;;;;;;;33.75;25.70;;;7.50;99.90;;;;;;6125446;23;92284;-77
2022/11/17 04:46:58;;;;;;;39.13;22.50;;;7.50;99.90;;;;;;6097785;23;97584;-77
2022/11/17 04:49:25;;;;;;;36.03;22.67;;;7.50;99.90;;;;;;6125019;23;93115;-77
2022/11/17 04:51:53;;;;;;;28.92;18.63;;;7.60;99.90;;;;;;6098065;23;92385;-77
2022/11/17 04:54:25;;;;;;;33.83;23.13;;;7.50;99.90;;;;;;6125606;23;92480;-78
2022/11/17 04:56:53;;;;;;;35.80;23.55;;;7.50;99.90;;;;;;6097908;23;96841;-77
2022/11/17 04:59:20;;;;;;;34.70;23.67;;;7.50;99.90;;;;;;6125090;23;93022;-77
2022/11/17 05:01:47;;;;;;;36.00;23.30;;;7.40;99.90;;;;;;6096905;23;94909;-77
2022/11/17 05:07:02;;;;;;;25.70;21.42;;;7.50;99.90;;;;;;6098347;23;95662;-77
2022/11/17 05:09:29;;;;;;;31.80;24.25;;;7.40;99.90;;;;;;6124950;23;92654;-77
2022/11/17 05:14:42;;;;;;;30.52;20.98;;;7.40;99.90;;;;;;6125092;23;92379;-77
2022/11/17 05:17:09;;;;;;;33.13;18.33;;;7.40;99.90;;;;;;6073581;23;95535;-77
2022/11/17 05:19:45;;;;;;;29.65;18.83;;;7.40;99.90;;;;;;6125270;23;92911;-77
2022/11/17 05:25:04;;;;;;;27.67;20.25;;;7.40;99.90;;;;;;6124949;23;92878;-77
2022/11/17 05:27:32;;;;;;;29.15;20.67;;;7.30;99.90;;;;;;6095892;23;98470;-76
2022/11/17 05:30:04;;;;;;;25.35;18.88;;;7.30;99.90;;;;;;6097998;23;98828;-77
2022/11/17 05:32:31;;;;;;;24.30;19.73;;;7.30;99.90;;;;;;6098196;23;92419;-77
2022/11/17 05:34:58;;;;;;;23.98;20.42;;;7.30;99.90;;;;;;6124793;23;92373;-77
2022/11/17 05:37:25;;;;;;;24.63;19.23;;;7.30;99.90;;;;;;6098484;23;92430;-77
2022/11/17 05:39:52;;;;;;;20.60;18.40;;;7.30;99.90;;;;;;6097176;23;108435;-77
2022/11/17 05:42:19;;;;;;;26.92;19.90;;;7.20;99.90;;;;;;6073710;23;92500;-77
2022/11/17 05:44:47;;;;;;;24.77;18.48;;;7.20;99.90;;;;;;6125371;23;91671;-77
2022/11/17 05:47:14;;;;;;;24.88;20.13;;;7.20;99.90;;;;;;6097776;23;96673;-77
2022/11/17 05:49:41;;;;;;;21.95;15.98;;;7.20;99.90;;;;;;6073423;23;95529;-77
2022/11/17 05:52:08;;;;;;;20.05;17.17;;;7.20;99.90;;;;;;6072233;23;94873;-78
2022/11/17 05:54:35;;;;;;;23.17;16.67;;;7.20;99.90;;;;;;6097848;23;92419;-78
2022/11/17 05:57:12;;;;;;;22.20;17.25;;;7.20;99.90;;;;;;6097356;23;95721;-78
2022/11/17 05:59:50;;;;;;;19.63;17.60;;;7.20;99.90;;;;;;6097924;23;95664;-78
2022/11/17 06:02:39;;;;;;;22.20;16.67;;;7.20;99.90;;;;;;6098211;23;92502;-78
2022/11/17 06:05:07;;;;;;;24.33;18.00;;;7.20;99.90;;;;;;6124727;23;92361;-78
2022/11/17 06:07:35;;;;;;;22.48;13.98;;;7.20;99.90;;;;;;6124638;23;93036;-78
2022/11/17 06:10:02;;;;;;;22.85;15.13;;;7.20;99.90;;;;;;6124777;23;93151;-78
2022/11/17 06:12:29;;;;;;;17.98;13.20;;;7.20;99.90;;;;;;6098389;23;92435;-79
2022/11/17 06:14:56;;;;;;;20.92;16.98;;;7.20;99.90;;;;;;6098078;23;92384;-79
2022/11/17 06:17:46;;;;;;;18.48;15.45;;;7.20;99.90;;;;;;6095133;23;103685;-79
2022/11/17 06:20:20;;;;;;;17.20;13.00;;;7.30;99.90;;;;;;6122434;23;95302;-79
2022/11/17 06:22:48;;;;;;;21.75;15.57;;;7.20;99.90;;;;;;6097921;23;92519;-79
2022/11/17 06:25:17;;;;;;;21.48;16.90;;;7.20;99.90;;;;;;6123699;23;105710;-80
2022/11/17 06:27:46;;;;;;;21.65;16.45;;;7.20;99.90;;;;;;6123901;23;93284;-79
2022/11/17 06:30:13;;;;;;;22.02;14.25;;;7.20;99.90;;;;;;6097204;23;105992;-79
2022/11/17 06:32:42;;;;;;;20.25;15.73;;;7.20;99.90;;;;;;6097568;23;92501;-79
2022/11/17 06:35:12;;;;;;;14.90;11.63;;;7.20;99.90;;;;;;6124964;23;92068;-79
2022/11/17 06:37:39;;;;;;;17.77;15.27;;;7.20;99.90;;;;;;6124299;23;93209;-79
2022/11/17 06:40:07;;;;;;;20.02;15.65;;;7.20;99.90;;;;;;6122665;23;92905;-79
2022/11/17 06:45:19;;;;;;;25.30;14.32;;;7.20;99.90;;;;;;6124328;23;92369;-79
2022/11/17 06:47:46;;;;;;;17.92;15.02;;;7.20;99.90;;;;;;6097577;23;95596;-79
2022/11/17 06:50:13;;;;;;;20.40;14.98;;;7.20;99.90;;;;;;6124061;23;93069;-79
2022/11/17 06:52:40;;;;;;;21.50;14.10;;;7.20;99.90;;;;;;6098206;23;92762;-78
2022/11/17 06:55:08;;;;;;;21.23;14.40;;;7.20;99.90;;;;;;6097218;23;92479;-79
2022/11/17 06:57:35;;;;;;;19.38;14.57;;;7.30;99.90;;;;;;6124066;23;93125;-79
2022/11/17 07:00:04;;;;;;;21.70;14.85;;;7.20;99.90;;;;;;6124621;23;93611;-80
2022/11/17 07:02:31;;;;;;;20.30;15.07;;;7.20;99.90;;;;;;6124339;23;92325;-79
2022/11/17 07:04:58;;;;;;;16.17;12.63;;;7.30;99.90;;;;;;6124172;23;92813;-80
2022/11/17 07:07:25;;;;;;;18.70;14.07;;;7.20;99.90;;;;;;6095528;23;96464;-80
2022/11/17 07:09:52;;;;;;;16.65;13.05;;;7.30;99.90;;;;;;6096769;23;111918;-80
2022/11/17 07:12:19;;;;;;;18.55;13.10;;;7.30;99.90;;;;;;6072790;23;92408;-80
2022/11/17 07:14:46;;;;;;;15.70;12.18;;;7.30;99.90;;;;;;6097405;23;92576;-80
2022/11/17 07:17:13;;;;;;;14.85;12.55;;;7.30;99.90;;;;;;6123668;23;93160;-80
2022/11/17 07:19:40;;;;;;;13.63;11.82;;;7.30;99.90;;;;;;6072417;23;95520;-80
2022/11/17 07:22:07;;;;;;;16.77;11.95;;;7.30;99.90;;;;;;6072745;23;92546;-81
2022/11/17 07:24:34;;;;;;;13.93;12.00;;;7.30;99.90;;;;;;6073354;23;91740;-80
2022/11/17 07:27:03;;;;;;;13.00;11.50;;;7.30;99.90;;;;;;6123913;23;93122;-80
2022/11/17 07:29:30;;;;;;;14.35;11.70;;;7.30;99.90;;;;;;6099291;23;93144;-81
2022/11/17 07:31:57;;;;;;;14.85;11.73;;;7.30;99.90;;;;;;6072999;23;95470;-81
2022/11/17 07:34:24;;;;;;;14.60;11.18;;;7.30;99.90;;;;;;6098398;23;101736;-81
2022/11/17 07:36:51;;;;;;;13.82;12.00;;;7.30;99.90;;;;;;6125127;23;93370;-82
2022/11/17 07:39:18;;;;;;;15.05;11.27;;;7.30;99.90;;;;;;6098453;23;93024;-82
2022/11/17 07:41:47;;;;;;;13.25;11.30;;;7.30;99.90;;;;;;6125384;23;92488;-82
2022/11/17 07:44:14;;;;;;;11.85;10.60;;;7.30;99.90;;;;;;6073798;23;92488;-82
2022/11/17 07:46:41;;;;;;;13.25;10.13;;;7.30;99.90;;;;;;6098813;23;93826;-82
2022/11/17 07:49:08;;;;;;;12.43;10.88;;;7.30;99.90;;;;;;6125393;23;93086;-82
2022/11/17 07:51:35;;;;;;;13.35;11.23;;;7.30;99.90;;;;;;6098855;23;92390;-83
2022/11/17 07:54:02;;;;;;;14.13;12.05;;;7.30;99.90;;;;;;6074258;23;92404;-83
2022/11/17 07:56:29;;;;;;;12.90;10.85;;;7.30;99.90;;;;;;6096364;23;105885;-83
2022/11/17 07:58:56;;;;;;;14.20;11.27;;;7.30;99.90;;;;;;6125165;23;95407;-83
2022/11/17 08:01:26;;;;;;;12.25;10.45;;;7.30;99.90;;;;;;6125108;23;92341;-83
2022/11/17 08:03:53;;;;;;;12.05;10.77;;;7.30;99.90;;;;;;6098280;23;92461;-83
2022/11/17 08:06:21;;;;;;;15.25;9.75;;;7.30;99.90;;;;;;6098609;23;93289;-83
2022/11/17 08:08:48;;;;;;;14.05;12.52;;;7.30;99.90;;;;;;6099677;23;93189;-83
2022/11/17 08:11:16;;;;;;;13.98;12.10;;;7.30;99.90;;;;;;6125207;23;92367;-83
2022/11/17 08:13:44;;;;;;;16.35;11.63;;;7.30;99.90;;;;;;6125927;23;91673;-82
2022/11/17 08:16:12;;;;;;;14.45;11.98;;;7.30;99.90;;;;;;6124946;23;92940;-83
2022/11/17 08:18:39;;;;;;;15.60;12.27;;;7.40;99.90;;;;;;6098959;23;93371;-82
2022/11/17 08:21:13;;;;;;;15.60;14.10;;;7.40;99.90;;;;;;6097140;23;94809;-82
2022/11/17 08:23:41;;;;;;;13.05;11.20;;;7.40;99.90;;;;;;6125602;23;92293;-82
2022/11/17 08:26:09;;;;;;;15.38;13.70;;;7.40;99.90;;;;;;6124987;23;93286;-82
2022/11/17 08:28:37;;;;;;;16.00;14.40;;;7.40;99.90;;;;;;6124256;23;93177;-82
2022/11/17 08:31:06;;;;;;;18.35;13.20;;;7.40;99.90;;;;;;6099112;23;92330;-82
2022/11/17 08:33:33;;;;;;;15.85;12.80;;;7.40;99.90;;;;;;6098625;23;92394;-82
2022/11/17 08:36:02;;;;;;;13.80;10.25;;;7.40;99.90;;;;;;6098200;23;95660;-82
2022/11/17 08:38:29;;;;;;;16.83;15.13;;;7.40;99.90;;;;;;6098250;23;95700;-82
2022/11/17 08:41:02;;;;;;;13.77;11.95;;;7.40;99.90;;;;;;6098338;23;92421;-83
2022/11/17 08:43:30;;;;;;;18.58;14.15;;;7.40;99.90;;;;;;6125232;23;92646;-83
2022/11/17 08:45:57;;;;;;;17.75;14.65;;;7.40;99.90;;;;;;6072482;23;98025;-82
2022/11/17 08:48:24;;;;;;;19.30;16.05;;;7.40;99.90;;;;;;6098177;23;97953;-83
2022/11/17 08:50:53;;;;;;;16.35;14.10;;;7.40;99.90;;;;;;6099382;23;92407;-83
2022/11/17 08:53:22;;;;;;;16.83;14.07;;;7.40;99.90;;;;;;6073629;23;92523;-83
2022/11/17 08:55:50;;;;;;;16.92;12.90;;;7.40;99.90;;;;;;6124533;23;100843;-82
2022/11/17 08:58:17;;;;;;;16.85;15.07;;;7.40;99.90;;;;;;6097626;23;95532;-81
2022/11/17 09:00:46;;;;;;;18.35;14.30;;;7.40;99.90;;;;;;6098773;23;92613;-81
2022/11/17 09:03:13;;;;;;;16.80;13.93;;;7.50;99.90;;;;;;6075217;23;91682;-81
2022/11/17 09:05:48;;;;;;;16.70;14.57;;;7.40;99.90;;;;;;6097755;23;95896;-80
2022/11/17 09:08:16;;;;;;;17.67;14.63;;;7.50;99.90;;;;;;6124947;23;92390;-79
2022/11/17 09:11:05;;;;;;;15.98;13.45;;;7.50;99.90;;;;;;6096748;23;94960;-79
2022/11/17 09:13:33;;;;;;;18.50;13.52;;;7.40;99.90;;;;;;6124822;23;92745;-79
2022/11/17 09:16:05;;;;;;;13.85;10.95;;;7.40;99.90;;;;;;6124854;23;93316;-79
2022/11/17 09:18:33;;;;;;;13.85;12.27;;;7.40;99.90;;;;;;6124528;23;93056;-79
2022/11/17 09:21:07;;;;;;;13.88;11.40;;;7.50;99.90;;;;;;6124948;23;92526;-79
2022/11/17 09:23:35;;;;;;;13.25;11.25;;;7.50;99.90;;;;;;6124720;23;92367;-79
2022/11/17 09:26:11;;;;;;;12.80;10.30;;;7.50;99.90;;;;;;6097884;23;95434;-79
2022/11/17 09:28:38;;;;;;;13.90;12.48;;;7.50;99.90;;;;;;6097816;23;92939;-79
2022/11/17 09:31:08;;;;;;;10.70;9.65;;;7.50;99.90;;;;;;6098263;23;92407;-79
2022/11/17 09:33:37;;;;;;;12.65;10.55;;;7.50;99.90;;;;;;6098385;23;92475;-80
2022/11/17 09:36:06;;;;;;;11.32;10.18;;;7.50;99.90;;;;;;6095006;23;120551;-79
2022/11/17 09:38:34;;;;;;;12.70;11.02;;;7.50;99.90;;;;;;6097155;23;97856;-80
2022/11/17 09:41:31;;;;;;;14.00;10.68;;;7.50;99.90;;;;;;6098845;23;92927;-80
2022/11/17 09:44:21;;;;;;;13.30;11.82;;;7.50;99.90;;;;;;6124954;23;92288;-81
2022/11/17 09:47:09;;;;;;;15.02;11.77;;;7.50;99.90;;;;;;6098297;23;94278;-81
2022/11/17 09:49:51;;;;;;;13.77;12.38;;;7.60;99.90;;;;;;6124501;23;93134;-81
2022/11/17 09:52:35;;;;;;;14.85;11.80;;;7.50;99.90;;;;;;6124620;23;92306;-80
2022/11/17 09:55:30;;;;;;;14.85;11.50;;;7.50;99.90;;;;;;6073954;23;91793;-80
2022/11/17 09:58:12;;;;;;;14.75;11.95;;;7.60;99.90;;;;;;6124604;23;93324;-82
2022/11/17 10:00:42;;;;;;;14.52;12.38;;;7.60;99.90;;;;;;6124423;23;93076;-82
2022/11/17 10:03:28;;;;;;;13.52;11.18;;;7.50;99.90;;;;;;6097012;23;94876;-81
2022/11/17 10:05:57;;;;;;;14.25;11.20;;;7.50;99.90;;;;;;6124784;23;92380;-82
2022/11/17 10:08:51;;;;;;;13.00;11.68;;;7.50;99.90;;;;;;6073164;23;95959;-82
2022/11/17 10:11:30;;;;;;;;;;;7.60;99.90;;;;;;6125136;23;92974;-82
2022/11/17 10:14:01;;;;;;;14.07;11.40;;;7.50;99.90;;;;;;6078415;23;92386;-82
2022/11/17 10:16:28;;;;;;;14.60;12.23;;;7.40;99.90;;;;;;6124560;23;92414;-83
2022/11/17 10:18:56;;;;;;;16.55;12.48;;;7.40;99.90;;;;;;6097550;23;108512;-82
2022/11/17 10:21:23;;;;;;;12.02;10.85;;;7.50;99.90;;;;;;6073632;23;95226;-83
2022/11/17 10:23:56;;;;;;;14.32;11.50;;;7.40;99.90;;;;;;6124622;23;92912;-83
2022/11/17 10:26:25;;;;;;;12.55;11.00;;;7.50;99.90;;;;;;6124753;23;92435;-84
2022/11/17 10:29:10;;;;;;;12.55;10.55;;;7.50;99.90;;;;;;6122301;23;95711;-83
2022/11/17 10:31:40;;;;;;;13.93;10.95;;;7.50;99.90;;;;;;6124088;23;94293;-83
2022/11/17 10:34:28;;;;;;;18.30;13.75;;;7.60;99.90;;;;;;6097973;23;92424;-82
2022/11/17 10:37:18;;;;;;;11.32;10.13;;;7.60;99.90;;;;;;6124705;23;92814;-82
2022/11/17 10:39:45;;;;;;;94.63;53.22;;;7.60;99.90;;;;;;6082591;23;94114;-82
2022/11/17 10:42:15;;;;;;;152.32;75.10;;;7.60;99.90;;;;;;6097658;23;92915;-82
2022/11/17 10:44:50;;;;;;;47.08;25.85;;;7.70;99.90;;;;;;6124252;23;92469;-82
2022/11/17 10:47:31;;;;;;;22.23;14.95;;;7.70;99.90;;;;;;6125268;23;92285;-82
2022/11/17 10:50:27;;;;;;;16.05;12.68;;;7.70;99.90;;;;;;6124437;23;93528;-82
2022/11/17 10:53:40;;;;;;;14.50;11.07;;;7.80;99.90;;;;;;6099034;23;92989;-82
2022/11/17 10:56:20;;;;;;;13.25;10.90;;;7.80;99.90;;;;;;6121764;23;94762;-82
2022/11/17 10:59:09;;;;;;;14.25;12.75;;;7.80;99.90;;;;;;6124337;23;92411;-82
2022/11/17 11:01:45;;;;;;;14.45;9.75;;;7.80;99.90;;;;;;6073171;23;95805;-83
2022/11/17 11:04:34;;;;;;;12.40;10.75;;;7.80;99.90;;;;;;6126396;23;95955;-82
2022/11/17 11:07:18;;;;;;;9.65;8.65;;;7.70;99.90;;;;;;6126136;23;92369;-83
2022/11/17 11:10:06;;;;;;;13.77;11.40;;;7.70;99.90;;;;;;6100030;23;92501;-84
2022/11/17 11:13:10;;;;;;;12.05;10.75;;;7.80;99.90;;;;;;6125633;23;92416;-83
2022/11/17 11:15:38;;;;;;;13.43;10.57;;;7.80;99.90;;;;;;6125686;23;92933;-83
2022/11/17 11:18:12;;;;;;;11.45;9.95;;;7.70;99.90;;;;;;6125666;23;92322;-83
2022/11/17 11:20:42;;;;;;;14.85;13.38;;;7.80;99.90;;;;;;6099196;23;92399;-82
2022/11/17 11:23:24;;;;;;;12.98;10.60;;;7.80;99.90;;;;;;6097297;23;95659;-83
2022/11/17 11:25:58;;;;;;;12.80;10.57;;;7.80;99.90;;;;;;6097757;23;98148;-82
2022/11/17 11:29:04;;;;;;;13.35;10.68;;;7.90;99.90;;;;;;6125457;23;92602;-83
2022/11/17 11:31:36;;;;;;;12.00;10.60;;;7.90;99.90;;;;;;6060761;23;92825;-83
2022/11/17 11:34:27;;;;;;;14.68;10.70;;;7.90;99.90;;;;;;6098961;23;93201;-82
2022/11/17 11:37:11;;;;;;;14.32;10.77;;;7.90;99.90;;;;;;6098198;23;95657;-83
2022/11/17 11:40:01;;;;;;;12.18;9.93;;;7.90;99.90;;;;;;6074063;23;92639;-82
2022/11/17 11:42:43;;;;;;;15.00;11.52;;;7.80;99.90;;;;;;6126619;23;91648;-82
2022/11/17 11:45:35;;;;;;;15.68;12.85;;;7.90;99.90;;;;;;6098771;23;93323;-83
2022/11/17 11:48:31;;;;;;;14.55;11.90;;;7.90;99.90;;;;;;6098482;23;93327;-82
2022/11/17 11:51:01;;;;;;;15.20;12.25;;;7.90;99.90;;;;;;6097033;23;94819;-82
2022/11/17 11:53:31;;;;;;;13.38;11.38;;;7.90;99.90;;;;;;6098200;23;92506;-83
2022/11/17 11:56:21;;;;;;;13.23;11.23;;;7.90;99.90;;;;;;6098291;23;94124;-83
2022/11/17 11:59:04;;;;;;;11.50;10.25;;;7.90;99.90;;;;;;6098566;23;93211;-82
2022/11/17 12:01:58;;;;;;;9.13;7.13;;;7.80;99.90;;;;;;6125324;23;92442;-83
2022/11/17 12:04:34;;;;;;;14.48;10.05;;;7.80;99.90;;;;;;6089339;23;92395;-82
2022/11/17 12:07:17;;;;;;;13.95;10.95;;;7.80;99.90;;;;;;6124873;23;93098;-83
2022/11/17 12:09:56;;;;;;;14.02;11.07;;;7.80;99.90;;;;;;6099330;23;93042;-84
2022/11/17 12:12:36;;;;;;;13.50;10.65;;;7.80;99.90;;;;;;6074364;23;92446;-83
2022/11/17 12:15:18;;;;;;;10.57;8.45;;;7.80;99.90;;;;;;6098047;23;92395;-82
2022/11/17 12:17:51;;;;;;;12.48;11.07;;;7.80;99.90;;;;;;6123924;23;95578;-84
2022/11/17 12:20:30;;;;;;;12.45;9.30;;;7.80;99.90;;;;;;6098072;23;98039;-85
2022/11/17 12:23:02;;;;;;;11.15;8.43;;;7.80;99.90;;;;;;6099332;23;92344;-83
2022/11/17 12:25:33;;;;;;;12.68;10.45;;;7.80;99.90;;;;;;6099462;23;92473;-83
2022/11/17 12:28:31;;;;;;;15.30;10.63;;;7.80;99.90;;;;;;6097593;23;95824;-83
2022/11/17 12:31:09;;;;;;;11.63;9.85;;;7.90;99.90;;;;;;6097650;23;92964;-83
2022/11/17 12:34:03;;;;;;;12.40;11.07;;;7.90;99.90;;;;;;6099329;23;92398;-84
2022/11/17 12:36:32;;;;;;;12.43;8.77;;;8.00;99.90;;;;;;6120806;23;93230;-84
2022/11/17 12:39:00;;;;;;;11.35;9.82;;;7.90;99.90;;;;;;6125448;23;93269;-82
2022/11/17 12:42:03;;;;;;;15.93;9.95;;;7.90;99.90;;;;;;6099182;23;93375;-82
2022/11/17 12:44:36;;;;;;;11.90;9.63;;;8.00;99.90;;;;;;6039976;23;95081;-82
2022/11/17 12:47:13;;;;;;;16.43;9.57;;;8.00;99.90;;;;;;6098825;23;92413;-82
2022/11/17 12:50:02;;;;;;;15.88;10.50;;;8.00;99.90;;;;;;6125660;23;93144;-81
2022/11/17 12:52:52;;;;;;;11.77;9.20;;;8.00;99.90;;;;;;6124939;23;93092;-81
2022/11/17 12:55:31;;;;;;;12.05;9.07;;;8.00;99.90;;;;;;6099027;23;92523;-81
2022/11/17 12:58:04;;;;;;;12.73;9.13;;;8.00;99.90;;;;;;6073825;23;92438;-81
2022/11/17 13:01:08;;;;;;;11.63;8.95;;;8.00;99.90;;;;;;6100143;23;93163;-80
2022/11/17 13:03:44;;;;;;;10.57;7.60;;;8.10;99.90;;;;;;6099222;23;95955;-81
2022/11/17 13:06:14;;;;;;;12.77;9.07;;;8.00;99.90;;;;;;6125573;23;92407;-80
2022/11/17 13:09:09;;;;;;;14.00;10.23;;;8.10;99.90;;;;;;6103413;23;92379;-81
2022/11/17 13:11:36;;;;;;;15.32;10.32;;;8.10;99.90;;;;;;6123278;23;95228;-81
2022/11/17 13:14:14;;;;;;;12.07;9.48;;;8.20;99.90;;;;;;6097917;23;95494;-81
2022/11/17 13:16:49;;;;;;;14.70;11.00;;;8.20;99.90;;;;;;6098890;23;92470;-82
2022/11/17 13:19:28;;;;;;;14.88;10.13;;;8.20;99.90;;;;;;6124640;23;92398;-82
2022/11/17 13:22:17;;;;;;;15.13;11.18;;;8.20;99.90;;;;;;6098456;23;93179;-81
2022/11/17 13:24:49;;;;;;;14.98;10.88;;;8.20;99.90;;;;;;6073644;23;95748;-82
2022/11/17 13:27:30;;;;;;;13.07;10.35;;;8.20;99.90;;;;;;6098136;23;92612;-82
2022/11/17 13:30:26;;;;;;;14.20;10.52;;;8.20;99.90;;;;;;6124934;23;91801;-82
2022/11/17 13:32:55;;;;;;;16.35;12.68;;;8.20;99.90;;;;;;6098124;23;95890;-82
2022/11/17 13:35:34;;;;;;;11.10;9.27;;;8.20;99.90;;;;;;6124464;23;92582;-82
2022/11/17 13:38:01;;;;;;;12.32;10.82;;;8.20;99.90;;;;;;6097066;23;94776;-83
2022/11/17 13:40:29;;;;;;;14.02;10.38;;;8.20;99.90;;;;;;6097884;23;92550;-82
2022/11/17 13:42:57;;;;;;;13.68;11.40;;;8.20;99.90;;;;;;6097731;23;95855;-83